• Join FlightAware (Why Join?)
  • Login
  • US Flag 
06:54PM EDT


 

Airport Tracker/Info


-or-


 

Live Flight TrackerFlight Track Log ✈ USC105 ✈ 22-May-2013 ✈ KLCK - KBKL

Flight Track Log - Related Links

Times and Time Zones

All times are in EDT time to prevent confusion due to time zone crossing. See the USC105 flight status page for this flight to view local times or setup timezone preferences in your user account.

Time Position Orientation Groundspeed Altitude Reporting Facility
EDT Latitude Longitude Course Direction KTS MPH feet Rate Location/Type
09:59PM 39.8058 -82.9394 115° Southeast 111 128 1,000  Level Indianapolis Center
10:00PM 39.7936 -82.9056 115° Southeast 157 181 2,100 960 Climbing Indianapolis Center
10:01PM 39.8014 -82.8681 75° East 153 176 2,800 960 Climbing Indianapolis Center
10:01PM 39.8056 -82.8525 71° East 153 176 3,100 960 Climbing Indianapolis Center
10:02PM 39.8144 -82.8147 73° East 152 175 3,800 840 Climbing Indianapolis Center
10:02PM 39.8194 -82.7997 67° East 151 174 4,000 840 Climbing Indianapolis Center
10:03PM 39.8294 -82.7625 71° East 152 175 4,700 960 Climbing Indianapolis Center
10:03PM 39.8333 -82.7469 72° East 155 178 5,000 240 Climbing Indianapolis Center
10:04PM 39.8458 -82.7050 69° East 163 188 5,000  Level Indianapolis Center
10:04PM 39.8547 -82.6789 66° East 193 222 5,000  Level Indianapolis Center
10:05PM 39.8647 -82.6386 72° East 186 214 5,000  Level Indianapolis Center
10:05PM 39.8717 -82.6100 72° East 207 238 5,000  Level Indianapolis Center
10:06PM 39.8844 -82.5661 69° East 203 234 5,000  Level Indianapolis Center
10:06PM 39.8975 -82.5342 62° Northeast 212 244 5,000  Level Indianapolis Center
10:07PM 39.9239 -82.5158 28° Northeast 215 247 5,000  Level Indianapolis Center
10:07PM 39.9583 -82.5000 19° North 212 244 5,000  Level Indianapolis Center
10:08PM 39.9803 -82.4883 22° Northeast 213 245 5,000  Level Indianapolis Center
10:08PM 40.0144 -82.4733 19° North 215 247 5,000  Level Indianapolis Center
10:09PM 40.0364 -82.4600 25° Northeast 215 247 5,000  Level Indianapolis Center
10:09PM 40.0683 -82.4467 18° North 211 243 5,000  Level Indianapolis Center
10:10PM 40.0914 -82.4328 25° Northeast 212 244 5,000  Level Indianapolis Center
10:10PM 40.1181 -82.4219 17° North 207 238 5,000  Level Indianapolis Center
10:11PM 40.1458 -82.4053 25° Northeast 208 239 5,000  Level Indianapolis Center
10:11PM 40.1767 -82.3872 24° Northeast 209 241 5,000  Level Indianapolis Center
10:12PM 40.1989 -82.3742 24° Northeast 208 239 5,000  Level Indianapolis Center
10:12PM 40.2331 -82.3578 20° North 205 236 5,000  Level Indianapolis Center
10:13PM 40.2522 -82.3447 27° Northeast 203 234 5,000  Level Indianapolis Center
10:13PM 40.2850 -82.3306 18° North 200 230 5,000  Level Indianapolis Center
10:14PM 40.3050 -82.3183 25° Northeast 201 231 5,000  Level Indianapolis Center
10:14PM 40.3367 -82.3058 17° North 201 231 5,000  Level Indianapolis Center
10:15PM 40.3578 -82.2908 28° Northeast 202 232 5,000  Level Indianapolis Center
10:16PM 40.4100 -82.2622 23° Northeast 202 232 5,000  Level Indianapolis Center
10:17PM 40.4622 -82.2344 22° Northeast 201 231 5,000  Level Indianapolis Center
10:18PM 40.5161 -82.2072 21° North 203 234 5,000  Level Indianapolis Center
10:19PM 40.5694 -82.1806 21° North 203 234 5,000  Level Indianapolis Center
10:20PM 40.6283 -82.1381 29° Northeast 205 236 5,000  Level Indianapolis Center
10:21PM 40.6767 -82.0944 34° Northeast 207 238 5,000  Level Indianapolis Center
10:22PM 40.7258 -82.0533 32° Northeast 207 238 5,000  Level Indianapolis Center
10:23PM 40.7764 -82.0086 34° Northeast 214 246 5,000  Level Indianapolis Center
10:24PM 40.8264 -81.9633 34° Northeast 217 250 5,000  Level Indianapolis Center
10:25PM 40.8639 -81.9283 35° Northeast 213 245 5,000  Level Cleveland Center
10:26PM 40.9144 -81.8717 40° Northeast 227 261 5,000  Level Cleveland Center
10:27PM 40.9483 -81.8283 44° Northeast 220 253 5,000  Level Cleveland Center